Time;durP1;ratioP1;P1;durP2;ratioP2;P2;SDS_P1;SDS_P2;PMS_P1;PMS_P2;Temp;Humidity;BMP_temperature;BMP_pressure;BME280_temperature;BME280_humidity;BME280_pressure;Samples;Min_cycle;Max_cycle;Signal;HPM_P1;HPM_P2
2021/04/30 00:01:11;;;;;;;3.57;3.10;;;7.60;99.90;;;;;;5035630;28;20259;-79
2021/04/30 00:03:37;;;;;;;5.00;3.20;;;7.60;99.90;;;;;;5034001;28;20269;-77
2021/04/30 00:06:03;;;;;;;3.47;3.17;;;7.60;99.90;;;;;;5033164;28;20190;-78
2021/04/30 00:08:28;;;;;;;3.23;2.93;;;7.60;99.90;;;;;;5034532;28;20182;-77
2021/04/30 00:10:54;;;;;;;3.30;3.00;;;7.50;99.90;;;;;;5033470;28;20819;-77
2021/04/30 00:13:20;;;;;;;3.67;3.10;;;7.50;99.90;;;;;;5033701;28;20573;-78
2021/04/30 00:15:46;;;;;;;2.87;2.57;;;7.50;99.90;;;;;;5032059;28;20211;-78
2021/04/30 00:18:12;;;;;;;3.13;2.60;;;7.50;99.90;;;;;;5035641;28;20202;-78
2021/04/30 00:20:41;;;;;;;3.50;3.10;;;7.50;99.90;;;;;;5033464;28;20702;-77
2021/04/30 00:23:12;;;;;;;3.13;2.77;;;7.50;99.90;;;;;;5035261;28;20182;-79
2021/04/30 00:25:39;;;;;;;3.77;3.10;;;7.60;99.90;;;;;;5034183;28;20261;-77
2021/04/30 00:28:04;;;;;;;4.60;3.60;;;7.50;99.90;;;;;;5033078;28;21207;-78
2021/04/30 00:30:30;;;;;;;4.23;3.70;;;7.40;99.90;;;;;;5032437;28;20203;-77
2021/04/30 00:32:56;;;;;;;4.17;3.77;;;7.40;99.90;;;;;;5033076;28;21252;-78
2021/04/30 00:35:22;;;;;;;4.33;3.37;;;7.40;99.90;;;;;;5033732;28;20290;-77
2021/04/30 00:37:47;;;;;;;5.40;3.80;;;7.40;99.90;;;;;;5032793;28;20174;-77
2021/04/30 00:40:13;;;;;;;5.10;3.73;;;7.40;99.90;;;;;;5032966;28;20213;-77
2021/04/30 00:42:38;;;;;;;4.87;3.80;;;7.40;99.90;;;;;;5033217;28;20213;-78
2021/04/30 00:45:06;;;;;;;3.83;3.40;;;7.40;99.90;;;;;;5035184;28;20191;-78
2021/04/30 00:47:37;;;;;;;4.63;3.77;;;7.40;99.90;;;;;;5032028;28;20218;-79
2021/04/30 00:50:05;;;;;;;4.17;3.60;;;7.30;99.90;;;;;;5033543;28;20213;-78
2021/04/30 00:52:31;;;;;;;4.13;3.37;;;7.30;99.90;;;;;;5034502;28;20293;-77
2021/04/30 00:55:00;;;;;;;5.20;4.20;;;7.20;99.90;;;;;;5034028;28;20187;-79
2021/04/30 00:57:27;;;;;;;4.10;3.70;;;7.20;99.90;;;;;;5033451;28;20205;-77
2021/04/30 00:59:53;;;;;;;4.30;3.50;;;7.30;99.90;;;;;;5035056;28;20218;-77
2021/04/30 01:02:18;;;;;;;4.20;3.57;;;7.30;99.90;;;;;;5052799;28;20264;-78
2021/04/30 01:04:44;;;;;;;4.33;3.90;;;7.30;99.90;;;;;;5035999;28;20209;-78
2021/04/30 01:07:09;;;;;;;6.47;3.80;;;7.30;99.90;;;;;;5035718;28;20187;-79
2021/04/30 01:09:35;;;;;;;3.57;3.17;;;7.20;99.90;;;;;;5038024;28;20211;-78
2021/04/30 01:12:01;;;;;;;3.97;3.20;;;7.20;99.90;;;;;;5037565;28;20575;-78
2021/04/30 01:14:28;;;;;;;5.03;4.27;;;7.20;99.90;;;;;;5035538;28;20179;-78
2021/04/30 01:16:54;;;;;;;4.33;3.87;;;7.20;99.90;;;;;;5044751;28;20298;-77
2021/04/30 01:19:21;;;;;;;4.63;3.80;;;7.20;99.90;;;;;;5037175;28;20278;-78
2021/04/30 01:21:54;;;;;;;5.30;4.27;;;7.20;99.90;;;;;;5044426;28;21261;-77
2021/04/30 01:24:20;;;;;;;4.80;3.60;;;7.30;99.90;;;;;;5037041;28;20316;-79
2021/04/30 01:26:46;;;;;;;4.40;3.40;;;7.20;99.90;;;;;;5037657;28;20221;-79
2021/04/30 01:29:12;;;;;;;4.30;3.43;;;7.30;99.90;;;;;;5038066;28;20217;-78
2021/04/30 01:31:37;;;;;;;4.03;3.23;;;7.30;99.90;;;;;;5037273;28;20277;-77
2021/04/30 01:34:03;;;;;;;4.23;2.93;;;7.30;99.90;;;;;;5037016;28;20552;-80
2021/04/30 01:36:31;;;;;;;3.77;3.00;;;7.30;99.90;;;;;;5036480;28;20225;-77
2021/04/30 01:38:56;;;;;;;4.67;3.40;;;7.30;99.90;;;;;;5034880;28;20592;-78
2021/04/30 01:41:25;;;;;;;4.10;3.43;;;7.40;99.90;;;;;;5038546;28;20194;-79
2021/04/30 01:43:51;;;;;;;4.03;3.30;;;7.50;99.90;;;;;;5036508;28;20646;-78
2021/04/30 01:46:17;;;;;;;4.90;3.47;;;7.50;99.90;;;;;;5036502;28;20190;-77
2021/04/30 01:48:43;;;;;;;4.20;3.47;;;7.50;99.90;;;;;;5036139;28;20186;-78
2021/04/30 01:51:09;;;;;;;3.73;3.40;;;7.50;99.90;;;;;;5035866;28;20213;-78
2021/04/30 01:53:36;;;;;;;4.13;3.27;;;7.50;99.90;;;;;;5038035;28;21079;-79
2021/04/30 01:56:04;;;;;;;3.70;3.27;;;7.50;99.90;;;;;;5036236;28;20210;-78
2021/04/30 01:58:29;;;;;;;5.57;3.80;;;7.50;99.90;;;;;;5035430;28;20186;-78
2021/04/30 02:00:57;;;;;;;4.03;3.63;;;7.50;99.90;;;;;;5036967;28;20223;-78
2021/04/30 02:03:24;;;;;;;3.87;3.07;;;7.40;99.90;;;;;;5044442;28;20174;-79
2021/04/30 02:05:50;;;;;;;4.40;3.67;;;7.50;99.90;;;;;;5033302;28;20186;-78
2021/04/30 02:08:16;;;;;;;3.43;2.83;;;7.50;99.90;;;;;;5036633;28;20191;-78
2021/04/30 02:10:44;;;;;;;4.53;3.57;;;7.40;99.90;;;;;;5035699;28;20280;-78
2021/04/30 02:13:10;;;;;;;3.90;3.20;;;7.40;99.90;;;;;;5035986;28;20625;-77
2021/04/30 02:15:39;;;;;;;4.57;3.27;;;7.40;99.90;;;;;;5037169;28;20280;-78
2021/04/30 02:18:05;;;;;;;3.77;2.97;;;7.40;99.90;;;;;;5035532;28;20174;-77
2021/04/30 02:20:31;;;;;;;3.80;3.20;;;7.40;99.90;;;;;;5035238;28;20294;-78
2021/04/30 02:22:58;;;;;;;4.47;3.50;;;7.40;99.90;;;;;;5035783;28;20187;-77
2021/04/30 02:25:24;;;;;;;3.93;3.23;;;7.40;99.90;;;;;;5036374;28;20656;-78
2021/04/30 02:27:52;;;;;;;3.93;3.47;;;7.40;99.90;;;;;;5043143;28;20193;-77
2021/04/30 02:30:19;;;;;;;3.90;3.23;;;7.40;99.90;;;;;;5034988;28;20219;-78
2021/04/30 02:32:45;;;;;;;4.63;3.77;;;7.40;99.90;;;;;;5041036;28;20194;-77
2021/04/30 02:35:17;;;;;;;3.77;2.90;;;7.40;99.90;;;;;;5040896;28;20238;-78
2021/04/30 02:37:44;;;;;;;3.87;3.13;;;7.30;99.90;;;;;;5055089;28;20178;-79
2021/04/30 02:40:10;;;;;;;4.20;3.47;;;7.40;99.90;;;;;;5042451;28;20203;-78
2021/04/30 02:42:37;;;;;;;4.60;3.50;;;7.40;99.90;;;;;;5059354;28;20190;-79
2021/04/30 02:45:05;;;;;;;4.53;3.43;;;7.40;99.90;;;;;;5044512;28;20364;-79
2021/04/30 02:47:32;;;;;;;4.17;3.77;;;7.40;99.90;;;;;;5049418;28;20179;-79
2021/04/30 02:50:05;;;;;;;4.07;2.97;;;7.50;99.90;;;;;;5044269;28;20226;-78
2021/04/30 02:52:32;;;;;;;4.00;3.50;;;7.50;99.90;;;;;;5044249;28;20186;-79
2021/04/30 02:54:58;;;;;;;4.10;3.63;;;7.50;99.90;;;;;;5045174;28;20190;-79
2021/04/30 02:57:24;;;;;;;3.33;3.03;;;7.50;99.90;;;;;;5040260;28;20174;-78
2021/04/30 02:59:50;;;;;;;4.37;3.73;;;7.50;99.90;;;;;;5044257;28;20339;-80
2021/04/30 03:02:18;;;;;;;4.67;3.57;;;7.60;99.90;;;;;;5041176;28;20178;-80
2021/04/30 03:04:44;;;;;;;5.33;3.40;;;7.60;99.90;;;;;;5037173;28;20183;-80
2021/04/30 03:07:09;;;;;;;3.63;3.33;;;7.50;99.90;;;;;;5037888;28;20535;-80
2021/04/30 03:09:35;;;;;;;5.20;3.83;;;7.40;99.90;;;;;;5037423;28;20182;-78
2021/04/30 03:12:01;;;;;;;4.87;4.07;;;7.40;99.90;;;;;;5037642;28;20179;-79
2021/04/30 03:14:27;;;;;;;5.70;3.73;;;7.40;99.90;;;;;;5036347;28;20178;-78
2021/04/30 03:16:53;;;;;;;4.57;3.63;;;7.40;99.90;;;;;;5034855;28;20206;-79
2021/04/30 03:19:19;;;;;;;5.10;3.67;;;7.40;99.90;;;;;;5035499;28;20672;-79
2021/04/30 03:21:44;;;;;;;5.93;3.83;;;7.40;99.90;;;;;;5035074;28;20183;-78
2021/04/30 03:24:10;;;;;;;4.13;3.33;;;7.40;99.90;;;;;;5034772;28;20181;-79
2021/04/30 03:26:36;;;;;;;4.50;3.40;;;7.40;99.90;;;;;;5034317;28;20182;-79
2021/04/30 03:29:03;;;;;;;3.90;3.17;;;7.40;99.90;;;;;;5034299;28;20801;-80
2021/04/30 03:31:29;;;;;;;4.93;3.57;;;7.40;99.90;;;;;;5034813;28;20983;-79
2021/04/30 03:33:55;;;;;;;4.07;3.43;;;7.40;99.90;;;;;;5034086;28;20605;-78
2021/04/30 03:36:21;;;;;;;4.93;4.20;;;7.40;99.90;;;;;;5035260;28;20199;-78
2021/04/30 03:38:48;;;;;;;6.50;3.57;;;7.30;99.90;;;;;;5035783;28;20241;-79
2021/04/30 03:41:14;;;;;;;5.57;3.80;;;7.30;99.90;;;;;;5043757;28;20570;-79
2021/04/30 03:43:41;;;;;;;5.33;4.27;;;7.30;99.90;;;;;;5042948;28;20663;-79
2021/04/30 03:46:06;;;;;;;5.93;4.37;;;7.30;99.90;;;;;;5043240;28;20607;-79
2021/04/30 03:48:32;;;;;;;6.33;4.27;;;7.40;99.90;;;;;;5043005;28;20182;-78
2021/04/30 03:50:58;;;;;;;5.20;3.33;;;7.40;99.90;;;;;;5043447;28;20644;-78
2021/04/30 03:53:24;;;;;;;5.07;4.20;;;7.40;99.90;;;;;;5047519;28;20207;-79
2021/04/30 03:55:50;;;;;;;6.03;3.90;;;7.50;99.90;;;;;;5048181;28;20202;-79
2021/04/30 03:58:16;;;;;;;5.27;4.27;;;7.50;99.90;;;;;;5037944;28;20492;-79
2021/04/30 04:00:42;;;;;;;5.57;4.40;;;7.40;99.90;;;;;;5045995;28;20215;-78
2021/04/30 04:03:08;;;;;;;6.63;3.90;;;7.40;99.90;;;;;;5047064;28;20189;-79
2021/04/30 04:05:33;;;;;;;5.90;4.30;;;7.50;99.90;;;;;;5038342;28;21070;-79
2021/04/30 04:07:59;;;;;;;4.43;3.67;;;7.40;99.90;;;;;;5043808;28;20971;-79
2021/04/30 04:10:25;;;;;;;5.90;4.40;;;7.40;99.90;;;;;;5034762;28;20719;-79
2021/04/30 04:12:50;;;;;;;4.90;3.70;;;7.40;99.90;;;;;;5037127;28;20193;-79
2021/04/30 04:15:16;;;;;;;4.83;3.80;;;7.40;99.90;;;;;;5036258;28;20230;-78
2021/04/30 04:17:43;;;;;;;4.87;4.00;;;7.40;99.90;;;;;;5034242;28;20171;-80
2021/04/30 04:20:09;;;;;;;4.53;3.43;;;7.50;99.90;;;;;;5036862;28;20255;-79
2021/04/30 04:22:35;;;;;;;6.00;4.53;;;7.50;99.90;;;;;;5034433;28;20178;-79
2021/04/30 04:25:00;;;;;;;6.57;4.37;;;7.60;99.90;;;;;;5036225;28;20188;-79
2021/04/30 04:27:26;;;;;;;7.47;3.87;;;7.60;99.90;;;;;;5036006;28;20186;-79
2021/04/30 04:29:52;;;;;;;8.57;4.80;;;7.50;99.90;;;;;;5034253;28;20198;-80
2021/04/30 04:32:17;;;;;;;6.60;4.30;;;7.60;99.90;;;;;;5034100;28;20178;-79
2021/04/30 04:34:43;;;;;;;5.93;4.70;;;7.70;99.90;;;;;;5038822;28;20270;-79
2021/04/30 04:37:09;;;;;;;5.53;4.10;;;7.70;99.90;;;;;;5039582;28;20241;-79
2021/04/30 04:39:34;;;;;;;6.50;4.70;;;7.80;99.90;;;;;;5040020;28;20194;-78
2021/04/30 04:42:02;;;;;;;5.67;4.43;;;7.70;99.90;;;;;;5040132;28;21082;-79
2021/04/30 04:44:28;;;;;;;6.43;4.87;;;7.80;99.90;;;;;;5039191;28;20194;-79
2021/04/30 04:46:54;;;;;;;7.13;5.30;;;7.80;99.90;;;;;;5040719;28;20597;-79
2021/04/30 04:49:20;;;;;;;10.53;5.03;;;7.60;99.90;;;;;;5038955;28;20190;-79
2021/04/30 04:51:45;;;;;;;5.90;4.60;;;7.70;99.90;;;;;;5039003;28;20182;-79
2021/04/30 04:54:11;;;;;;;5.43;4.03;;;7.60;99.90;;;;;;5039284;28;20187;-79
2021/04/30 04:56:37;;;;;;;6.40;5.43;;;7.60;99.90;;;;;;5038009;28;20297;-80
2021/04/30 04:59:03;;;;;;;7.50;5.50;;;7.70;99.90;;;;;;5038274;28;20243;-79
2021/04/30 05:01:28;;;;;;;8.27;5.53;;;7.70;99.90;;;;;;5038805;28;20238;-77
2021/04/30 05:03:54;;;;;;;7.77;5.57;;;7.70;99.90;;;;;;5036726;28;20707;-78
2021/04/30 05:06:20;;;;;;;7.20;5.07;;;7.80;99.90;;;;;;5038246;28;20187;-78
2021/04/30 05:08:45;;;;;;;6.70;4.97;;;7.70;99.90;;;;;;5038764;28;20265;-80
2021/04/30 05:11:11;;;;;;;7.80;5.60;;;7.80;99.90;;;;;;5037973;28;20198;-78
2021/04/30 05:13:37;;;;;;;7.20;5.03;;;7.80;99.90;;;;;;5038633;28;20554;-78
2021/04/30 05:16:03;;;;;;;7.40;5.33;;;7.80;99.90;;;;;;5037111;28;20205;-78
2021/04/30 05:18:30;;;;;;;6.20;5.13;;;7.90;99.90;;;;;;5045546;28;20185;-78
2021/04/30 05:20:57;;;;;;;5.80;4.67;;;7.80;99.90;;;;;;5035984;28;21020;-78
2021/04/30 05:23:23;;;;;;;7.53;6.07;;;7.80;99.90;;;;;;5038558;28;20175;-79
2021/04/30 05:25:52;;;;;;;7.87;5.80;;;7.90;99.90;;;;;;5037349;28;20282;-78
2021/04/30 05:28:18;;;;;;;7.57;5.87;;;7.90;99.90;;;;;;5036882;28;20186;-79
2021/04/30 05:30:44;;;;;;;8.40;5.57;;;7.90;99.90;;;;;;5035902;28;20203;-78
2021/04/30 05:33:10;;;;;;;7.70;6.13;;;8.00;99.90;;;;;;5044329;28;20672;-78
2021/04/30 05:35:35;;;;;;;6.97;6.10;;;8.00;99.90;;;;;;5039723;28;20206;-79
2021/04/30 05:38:01;;;;;;;7.77;5.63;;;8.00;99.90;;;;;;5037306;28;20608;-78
2021/04/30 05:40:27;;;;;;;8.13;5.70;;;8.10;99.90;;;;;;5038513;28;20255;-78
2021/04/30 05:42:53;;;;;;;9.07;6.23;;;8.00;99.90;;;;;;5036568;28;20206;-78
2021/04/30 05:45:18;;;;;;;9.83;6.23;;;8.10;99.90;;;;;;5038199;28;20251;-79
2021/04/30 05:47:45;;;;;;;7.97;6.20;;;8.10;99.90;;;;;;5037846;28;20209;-78
2021/04/30 05:50:11;;;;;;;6.40;5.13;;;8.00;99.90;;;;;;5037721;28;20230;-78
2021/04/30 05:52:37;;;;;;;8.80;5.77;;;8.10;99.90;;;;;;5037064;28;20178;-78
2021/04/30 05:55:04;;;;;;;9.40;6.57;;;8.10;99.90;;;;;;5035793;28;20192;-79
2021/04/30 05:57:30;;;;;;;7.67;5.60;;;8.20;99.90;;;;;;5044346;28;20187;-77
2021/04/30 05:59:56;;;;;;;8.33;6.40;;;8.20;99.90;;;;;;5036507;28;20268;-78
2021/04/30 06:02:21;;;;;;;9.77;6.20;;;8.20;99.90;;;;;;5036739;28;20258;-79
2021/04/30 06:04:47;;;;;;;8.23;6.07;;;8.20;99.90;;;;;;5037567;28;20216;-78
2021/04/30 06:07:13;;;;;;;9.27;6.47;;;8.20;99.90;;;;;;5037326;28;20190;-78
2021/04/30 06:09:38;;;;;;;8.50;5.83;;;8.20;99.90;;;;;;5035773;28;20741;-78
2021/04/30 06:12:04;;;;;;;9.00;6.43;;;8.30;99.90;;;;;;5043676;28;20217;-79
2021/04/30 06:14:30;;;;;;;8.83;5.93;;;8.40;99.90;;;;;;5035303;28;20182;-79
2021/04/30 06:17:02;;;;;;;7.43;5.80;;;8.40;99.90;;;;;;5038744;28;20202;-78
2021/04/30 06:19:28;;;;;;;6.87;5.43;;;8.50;99.90;;;;;;5035887;28;20189;-79
2021/04/30 06:21:54;;;;;;;7.43;5.27;;;8.50;99.90;;;;;;5038360;28;20175;-79
2021/04/30 06:24:20;;;;;;;7.30;5.03;;;8.50;99.90;;;;;;5045454;28;20184;-79
2021/04/30 06:26:47;;;;;;;8.53;6.20;;;8.50;99.90;;;;;;5037842;28;20178;-77
2021/04/30 06:29:13;;;;;;;6.23;5.17;;;8.50;99.90;;;;;;5035534;28;20579;-79
2021/04/30 06:31:40;;;;;;;6.27;5.13;;;8.40;99.90;;;;;;5035556;28;20222;-78
2021/04/30 06:34:05;;;;;;;7.47;5.47;;;8.50;99.90;;;;;;5034574;28;20187;-78
2021/04/30 06:36:32;;;;;;;7.83;5.93;;;8.50;99.90;;;;;;5043687;28;20198;-80
2021/04/30 06:38:58;;;;;;;9.50;5.40;;;8.40;99.90;;;;;;5035653;28;20182;-78
2021/04/30 06:41:24;;;;;;;7.20;4.97;;;8.50;99.90;;;;;;5036371;28;20607;-78
2021/04/30 06:43:49;;;;;;;8.47;4.87;;;8.40;99.90;;;;;;5035407;28;20183;-78
2021/04/30 06:46:15;;;;;;;5.80;4.10;;;8.30;99.90;;;;;;5053211;28;20186;-81
2021/04/30 06:48:41;;;;;;;6.80;4.83;;;8.30;99.90;;;;;;5036428;28;20237;-77
2021/04/30 06:51:07;;;;;;;7.23;4.87;;;8.40;99.90;;;;;;5026788;28;20211;-73
2021/04/30 06:53:32;;;;;;;5.43;4.17;;;8.40;99.90;;;;;;5034577;28;20977;-75
2021/04/30 06:55:58;;;;;;;6.43;4.37;;;8.50;99.90;;;;;;5034913;28;20213;-75
2021/04/30 06:58:24;;;;;;;7.10;4.80;;;8.50;99.90;;;;;;5030075;28;20194;-75
2021/04/30 07:00:49;;;;;;;5.97;5.10;;;8.60;99.90;;;;;;5033937;28;20218;-73
2021/04/30 07:03:15;;;;;;;6.13;4.73;;;8.70;99.90;;;;;;5034524;28;20699;-77
2021/04/30 07:05:40;;;;;;;6.63;5.00;;;8.80;99.90;;;;;;5035003;28;20182;-76
2021/04/30 07:08:06;;;;;;;6.87;5.17;;;8.80;99.90;;;;;;5027412;28;20266;-75
2021/04/30 07:10:32;;;;;;;7.30;5.27;;;8.80;99.90;;;;;;5040275;28;20682;-73
2021/04/30 07:12:58;;;;;;;5.80;5.10;;;8.60;99.90;;;;;;5036484;28;20178;-75
2021/04/30 07:15:24;;;;;;;7.00;5.23;;;8.70;99.90;;;;;;5031558;28;20265;-76
2021/04/30 07:17:50;;;;;;;5.87;4.27;;;8.60;99.90;;;;;;5032857;28;20183;-74
2021/04/30 07:20:16;;;;;;;7.63;5.80;;;8.60;99.90;;;;;;5033381;28;20235;-76
2021/04/30 07:22:42;;;;;;;7.40;5.57;;;8.50;99.90;;;;;;5035169;28;20274;-73
2021/04/30 07:25:08;;;;;;;7.33;6.20;;;8.60;99.90;;;;;;5036031;28;20193;-76
2021/04/30 07:27:33;;;;;;;7.37;5.63;;;8.90;99.90;;;;;;5039744;28;20239;-73
2021/04/30 07:29:59;;;;;;;8.37;6.13;;;9.00;99.90;;;;;;5034890;28;20202;-77
2021/04/30 07:32:25;;;;;;;8.03;6.13;;;9.10;99.90;;;;;;5031598;28;20492;-75
2021/04/30 07:34:50;;;;;;;10.53;7.07;;;9.20;99.90;;;;;;5034272;28;20202;-77
2021/04/30 07:37:16;;;;;;;8.63;6.30;;;9.30;99.90;;;;;;5030616;28;20291;-75
2021/04/30 07:39:43;;;;;;;10.03;7.07;;;9.40;99.90;;;;;;5035484;28;20230;-75
2021/04/30 07:42:09;;;;;;;10.13;7.07;;;9.40;99.90;;;;;;5029666;28;20317;-76
2021/04/30 07:44:34;;;;;;;10.57;6.83;;;9.50;99.90;;;;;;5027137;28;20672;-76
2021/04/30 07:47:00;;;;;;;11.53;9.77;;;9.50;99.90;;;;;;5030195;28;20194;-74
2021/04/30 07:49:26;;;;;;;10.50;7.33;;;9.60;99.90;;;;;;5024637;28;20735;-76
2021/04/30 07:51:52;;;;;;;12.80;8.23;;;9.50;99.90;;;;;;5033340;28;20194;-75
2021/04/30 07:54:18;;;;;;;10.57;7.17;;;9.40;99.90;;;;;;5029714;28;20190;-75
2021/04/30 07:56:45;;;;;;;8.87;6.90;;;9.50;99.90;;;;;;5034748;28;20328;-74
2021/04/30 07:59:10;;;;;;;9.57;6.73;;;9.90;99.90;;;;;;5035247;28;20182;-74
2021/04/30 08:01:36;;;;;;;10.63;6.90;;;10.20;99.90;;;;;;5030533;28;20222;-74
2021/04/30 08:04:02;;;;;;;9.63;7.40;;;10.40;99.90;;;;;;5032714;28;20182;-76
2021/04/30 08:06:28;;;;;;;11.23;7.80;;;10.60;99.90;;;;;;5025351;28;20529;-73
2021/04/30 08:08:53;;;;;;;9.27;6.30;;;10.70;99.90;;;;;;5024683;28;20817;-76
2021/04/30 08:11:19;;;;;;;9.53;6.80;;;10.40;99.90;;;;;;5032914;28;21262;-76
2021/04/30 08:13:45;;;;;;;9.77;6.40;;;10.00;99.90;;;;;;5032273;28;20183;-75
2021/04/30 08:16:10;;;;;;;10.60;6.93;;;9.90;99.90;;;;;;5034502;28;20262;-75
2021/04/30 08:18:37;;;;;;;7.60;6.10;;;9.80;99.90;;;;;;5031444;28;20240;-74
2021/04/30 08:21:03;;;;;;;8.00;6.00;;;9.80;99.90;;;;;;5031392;28;20261;-75
2021/04/30 08:23:29;;;;;;;9.90;6.47;;;9.70;99.90;;;;;;5025904;28;20201;-76
2021/04/30 08:25:54;;;;;;;8.07;6.07;;;9.70;99.90;;;;;;5036639;28;20194;-75
2021/04/30 08:28:20;;;;;;;7.87;5.83;;;9.70;99.90;;;;;;5031952;28;20187;-73
2021/04/30 08:30:46;;;;;;;10.83;7.10;;;9.60;99.90;;;;;;5034224;28;20209;-76
2021/04/30 08:33:11;;;;;;;8.90;6.70;;;9.50;99.90;;;;;;5035748;28;20551;-76
2021/04/30 08:35:37;;;;;;;7.67;5.87;;;9.60;99.90;;;;;;5032301;28;20206;-74
2021/04/30 08:38:04;;;;;;;10.27;6.60;;;9.60;99.90;;;;;;5028884;28;20187;-76
2021/04/30 08:40:30;;;;;;;9.27;6.57;;;9.50;99.90;;;;;;5041005;28;20197;-77
2021/04/30 08:42:58;;;;;;;7.37;5.90;;;9.60;99.90;;;;;;5033645;28;20687;-77
2021/04/30 08:45:24;;;;;;;8.03;6.37;;;9.60;99.90;;;;;;5032130;28;20216;-79
2021/04/30 08:47:50;;;;;;;9.90;6.23;;;9.60;99.90;;;;;;5035169;28;20210;-77
2021/04/30 08:50:16;;;;;;;7.93;5.40;;;9.50;99.90;;;;;;5033448;28;20248;-77
2021/04/30 08:52:42;;;;;;;7.50;6.43;;;9.40;99.90;;;;;;5034402;28;20202;-78
2021/04/30 08:55:12;;;;;;;8.40;6.07;;;9.50;99.90;;;;;;5034067;28;20293;-77
2021/04/30 08:57:38;;;;;;;8.10;6.07;;;9.60;99.90;;;;;;5032382;28;20170;-78
2021/04/30 09:00:06;;;;;;;9.40;6.33;;;9.80;99.90;;;;;;5035049;28;20246;-77
2021/04/30 09:02:34;;;;;;;9.27;6.43;;;9.80;99.90;;;;;;5034737;28;20258;-77
2021/04/30 09:05:00;;;;;;;8.27;5.97;;;9.80;99.90;;;;;;5032801;28;20269;-77
2021/04/30 09:07:26;;;;;;;9.80;7.00;;;9.90;99.90;;;;;;5032246;28;20186;-77
2021/04/30 09:10:06;;;;;;;7.87;5.90;;;9.90;99.90;;;;;;5037390;28;20298;-76
2021/04/30 09:12:32;;;;;;;9.00;6.40;;;9.90;99.90;;;;;;5023772;28;20213;-76
2021/04/30 09:14:59;;;;;;;9.13;7.03;;;10.10;99.90;;;;;;5031399;28;20186;-77
2021/04/30 09:17:27;;;;;;;8.17;6.03;;;10.40;99.90;;;;;;5032436;28;20198;-76
2021/04/30 09:20:04;;;;;;;8.67;6.33;;;10.40;99.90;;;;;;5033664;28;20224;-77
2021/04/30 09:22:34;;;;;;;9.17;5.80;;;10.50;99.90;;;;;;5039455;28;20182;-77
2021/04/30 09:25:03;;;;;;;7.33;5.40;;;10.30;99.90;;;;;;5036103;28;20771;-77
2021/04/30 09:27:36;;;;;;;8.30;5.90;;;10.30;99.90;;;;;;5035378;28;20175;-77
2021/04/30 09:30:34;;;;;;;5.73;4.27;;;10.40;99.90;;;;;;5036989;28;20211;-77
2021/04/30 09:33:07;;;;;;;6.43;5.17;;;10.50;99.90;;;;;;5026841;28;20229;-77
2021/04/30 09:35:37;;;;;;;7.87;5.60;;;10.60;99.90;;;;;;5035581;28;20203;-77
2021/04/30 09:38:24;;;;;;;9.80;6.97;;;10.60;99.90;;;;;;5044182;28;20299;-77
2021/04/30 09:41:12;;;;;;;7.17;5.80;;;10.60;99.90;;;;;;5036198;28;20277;-76
2021/04/30 09:43:42;;;;;;;7.93;6.10;;;10.50;99.90;;;;;;5035066;28;20636;-77
2021/04/30 09:46:34;;;;;;;9.73;6.53;;;10.40;99.90;;;;;;5034483;28;20243;-77
2021/04/30 09:49:10;;;;;;;7.40;5.80;;;10.40;99.90;;;;;;5031353;28;20714;-76
2021/04/30 09:51:44;;;;;;;8.33;5.23;;;10.30;99.90;;;;;;5030207;28;20256;-76
2021/04/30 09:54:30;;;;;;;7.40;4.87;;;10.20;99.90;;;;;;5030742;28;20198;-75
2021/04/30 09:57:10;;;;;;;6.03;4.40;;;10.20;99.90;;;;;;5036000;28;20213;-76
2021/04/30 09:59:40;;;;;;;6.43;4.30;;;10.30;99.90;;;;;;5034255;28;20267;-76
2021/04/30 10:02:15;;;;;;;6.27;5.03;;;10.30;99.90;;;;;;5040068;28;20195;-73
2021/04/30 10:04:43;;;;;;;6.03;4.57;;;10.40;99.90;;;;;;5032339;28;20182;-76
2021/04/30 10:07:09;;;;;;;6.13;4.60;;;10.40;99.90;;;;;;5032881;28;20178;-76
2021/04/30 10:09:36;;;;;;;7.07;4.50;;;10.30;99.90;;;;;;5031281;28;20183;-76
2021/04/30 10:12:20;;;;;;;6.10;4.80;;;10.20;99.90;;;;;;5030963;28;20210;-75
2021/04/30 10:14:47;;;;;;;5.13;4.27;;;10.20;99.90;;;;;;5031256;28;20244;-75
2021/04/30 10:17:14;;;;;;;6.23;4.43;;;10.20;99.90;;;;;;5034186;28;20243;-75
2021/04/30 10:19:42;;;;;;;8.57;4.87;;;10.30;99.90;;;;;;5033524;28;20194;-75
2021/04/30 10:22:18;;;;;;;5.53;4.27;;;10.50;99.90;;;;;;5033656;28;20182;-74
2021/04/30 10:24:50;;;;;;;5.53;4.60;;;10.60;99.90;;;;;;5037217;28;20178;-77
2021/04/30 10:27:18;;;;;;;6.73;4.83;;;10.70;99.90;;;;;;5028166;28;20671;-75
2021/04/30 10:29:51;;;;;;;6.33;4.63;;;10.90;99.90;;;;;;5029929;28;20202;-77
2021/04/30 10:32:19;;;;;;;6.27;4.67;;;11.00;99.90;;;;;;5033020;28;20178;-77
2021/04/30 10:34:48;;;;;;;5.47;4.23;;;11.10;99.90;;;;;;5034296;28;20183;-77
2021/04/30 10:37:22;;;;;;;5.70;4.00;;;10.80;99.90;;;;;;5039322;28;20790;-77
2021/04/30 10:39:58;;;;;;;5.97;4.20;;;10.70;99.90;;;;;;5037999;28;20285;-77
2021/04/30 10:42:29;;;;;;;6.30;4.20;;;10.80;99.90;;;;;;5037038;28;20182;-77
2021/04/30 10:45:00;;;;;;;6.37;4.23;;;11.00;99.90;;;;;;5028012;28;20679;-77
2021/04/30 10:47:26;;;;;;;6.13;4.20;;;11.20;99.90;;;;;;5033658;28;20202;-77
2021/04/30 10:50:13;;;;;;;5.97;3.97;;;11.20;99.90;;;;;;5037127;28;20332;-75
2021/04/30 10:52:39;;;;;;;4.83;3.70;;;11.40;99.90;;;;;;5039108;28;20178;-77
2021/04/30 10:55:11;;;;;;;6.10;3.77;;;11.50;99.90;;;;;;5037878;28;20174;-76
2021/04/30 10:57:49;;;;;;;6.20;4.13;;;11.40;99.90;;;;;;5034908;28;20179;-76
2021/04/30 11:00:15;;;;;;;4.57;3.70;;;11.40;99.90;;;;;;5035600;28;21218;-75
2021/04/30 11:02:41;;;;;;;4.63;4.00;;;11.60;99.90;;;;;;5034053;28;20460;-76
2021/04/30 11:05:07;;;;;;;4.53;3.83;;;11.70;99.90;;;;;;5038570;28;20221;-75
2021/04/30 11:07:43;;;;;;;5.30;4.30;;;11.80;99.90;;;;;;5036105;28;20181;-76
2021/04/30 11:13:18;;;;;;;3.72;3.17;;;12.00;99.90;;;;;;5040729;28;20229;-77
2021/04/30 11:15:44;;;;;;;4.60;3.37;;;11.90;99.90;;;;;;5045011;28;20681;-77
2021/04/30 11:18:09;;;;;;;5.30;3.70;;;12.10;99.90;;;;;;5042197;28;20184;-77
2021/04/30 11:20:36;;;;;;;3.83;2.83;;;12.10;99.90;;;;;;5036608;28;20285;-77
2021/04/30 11:23:21;;;;;;;3.77;2.97;;;12.10;99.90;;;;;;5034366;28;20664;-77
2021/04/30 11:26:05;;;;;;;3.53;3.23;;;12.40;99.90;;;;;;5024712;28;20303;-77
2021/04/30 11:28:31;;;;;;;3.37;2.87;;;12.30;99.90;;;;;;5027278;28;20657;-77
2021/04/30 11:31:01;;;;;;;3.88;3.00;;;12.40;99.90;;;;;;5034192;28;20199;-77
2021/04/30 11:33:27;;;;;;;4.05;2.97;;;12.40;99.90;;;;;;5031183;28;20527;-77
2021/04/30 11:35:53;;;;;;;4.72;3.22;;;12.40;99.90;;;;;;5034428;28;20293;-77
2021/04/30 11:38:19;;;;;;;4.95;3.00;;;12.50;99.90;;;;;;5029443;28;20852;-77
2021/04/30 11:40:57;;;;;;;3.33;2.60;;;12.20;99.90;;;;;;5030268;28;20202;-77
2021/04/30 11:43:23;;;;;;;3.90;2.97;;;12.20;99.90;;;;;;5032636;28;20182;-77
2021/04/30 11:45:54;;;;;;;4.25;3.20;;;12.00;99.90;;;;;;5029754;28;20206;-77
2021/04/30 11:48:27;;;;;;;3.55;2.92;;;12.00;99.90;;;;;;5036672;28;20183;-77
2021/04/30 11:51:07;;;;;;;4.72;3.72;;;12.30;99.90;;;;;;5029941;28;20724;-77
2021/04/30 11:53:34;;;;;;;3.38;2.92;;;12.30;99.90;;;;;;5027806;28;20186;-77
2021/04/30 11:56:00;;;;;;;3.55;3.22;;;12.30;99.90;;;;;;5033600;28;20214;-76
2021/04/30 11:58:38;;;;;;;3.67;3.03;;;12.30;99.90;;;;;;5031941;28;20178;-77
2021/04/30 12:01:05;;;;;;;3.42;3.05;;;12.40;99.90;;;;;;5038559;28;20204;-76
2021/04/30 12:03:53;;;;;;;3.47;3.17;;;12.50;99.90;;;;;;5032542;28;20178;-76
2021/04/30 12:06:28;;;;;;;2.95;2.60;;;12.40;99.90;;;;;;5028739;28;20183;-77
2021/04/30 12:08:55;;;;;;;5.95;3.15;;;12.40;99.90;;;;;;5032510;28;20304;-77
2021/04/30 12:11:29;;;;;;;4.05;3.20;;;12.40;99.90;;;;;;5026546;28;20214;-77
2021/04/30 12:13:57;;;;;;;3.38;2.53;;;12.60;99.90;;;;;;5033584;28;20519;-77
2021/04/30 12:16:23;;;;;;;3.50;2.85;;;12.80;99.90;;;;;;5028221;28;20281;-77
2021/04/30 12:18:52;;;;;;;4.80;3.63;;;12.80;99.90;;;;;;5033386;28;20182;-77
2021/04/30 12:21:32;;;;;;;3.70;2.88;;;12.90;99.90;;;;;;5035363;28;20699;-77
2021/04/30 12:24:01;;;;;;;3.17;2.67;;;12.90;99.90;;;;;;5033858;28;20185;-77
2021/04/30 12:26:32;;;;;;;4.75;3.50;;;12.70;99.90;;;;;;5031818;28;20186;-77
2021/04/30 12:29:00;;;;;;;4.57;3.30;;;12.70;99.90;;;;;;5031948;28;20349;-77
2021/04/30 12:31:27;;;;;;;3.20;2.72;;;12.70;99.90;;;;;;5033510;28;20194;-77
2021/04/30 12:33:55;;;;;;;3.92;3.25;;;12.60;99.90;;;;;;5032038;28;20186;-77
2021/04/30 12:36:26;;;;;;;3.20;2.80;;;12.50;99.90;;;;;;5026229;28;20675;-77
2021/04/30 12:38:56;;;;;;;3.40;3.10;;;12.40;99.90;;;;;;5031717;28;20186;-76
2021/04/30 12:41:33;;;;;;;3.95;3.08;;;12.50;99.90;;;;;;5027992;28;20249;-76
2021/04/30 12:44:09;;;;;;;2.80;2.35;;;12.50;99.90;;;;;;5033964;28;20214;-76
2021/04/30 12:46:41;;;;;;;4.20;3.40;;;12.50;99.90;;;;;;5027173;28;20173;-76
2021/04/30 12:49:13;;;;;;;4.10;3.00;;;12.30;99.90;;;;;;5031657;28;20276;-76
2021/04/30 12:51:57;;;;;;;4.43;3.50;;;12.40;99.90;;;;;;5033132;28;20614;-75
2021/04/30 12:54:29;;;;;;;5.15;3.30;;;12.40;99.90;;;;;;5028106;28;20192;-76
2021/04/30 12:56:55;;;;;;;3.07;2.60;;;12.40;99.90;;;;;;5040290;28;20668;-76
2021/04/30 12:59:26;;;;;;;3.88;3.25;;;12.50;99.90;;;;;;5035602;28;20178;-79